createdAt,value
2022-12-20T00:01:52.618Z,20.67
2022-12-20T00:04:20.510Z,20.83
2022-12-20T00:06:48.255Z,19.80
2022-12-20T00:09:15.889Z,20.25
2022-12-20T00:11:43.572Z,21.08
2022-12-20T00:14:11.521Z,20.15
2022-12-20T00:16:39.494Z,20.27
2022-12-20T00:19:07.824Z,20.85
2022-12-20T00:21:36.394Z,20.95
2022-12-20T00:24:06.334Z,21.58
2022-12-20T00:26:36.058Z,19.85
2022-12-20T00:29:05.411Z,20.25
2022-12-20T00:31:33.808Z,20.13
2022-12-20T00:34:02.404Z,20.98
2022-12-20T00:36:32.477Z,19.67
2022-12-20T00:39:01.374Z,19.85
2022-12-20T00:41:33.340Z,19.63
2022-12-20T00:44:04.086Z,19.15
2022-12-20T00:46:34.190Z,19.37
2022-12-20T00:49:02.102Z,19.65
2022-12-20T00:51:32.596Z,18.52
2022-12-20T00:54:00.497Z,17.87
2022-12-20T00:56:28.200Z,17.73
2022-12-20T00:58:59.882Z,19.02
2022-12-20T01:01:31.866Z,17.90
2022-12-20T01:04:00.148Z,18.30
2022-12-20T01:06:29.221Z,18.30
2022-12-20T01:08:58.150Z,18.73
2022-12-20T01:11:34.643Z,19.55
2022-12-20T01:14:11.468Z,18.05
2022-12-20T01:16:47.061Z,16.35
2022-12-20T01:19:18.405Z,15.98
2022-12-20T01:21:46.687Z,11.83
2022-12-20T01:24:19.916Z,14.82
2022-12-20T01:26:47.770Z,14.82
2022-12-20T01:29:16.151Z,15.15
2022-12-20T01:31:44.370Z,15.98
2022-12-20T01:34:12.436Z,15.00
2022-12-20T01:36:41.145Z,15.95
2022-12-20T01:39:15.375Z,14.95
2022-12-20T01:41:45.565Z,14.70
2022-12-20T01:44:19.320Z,14.93
2022-12-20T01:46:49.332Z,14.90
2022-12-20T01:49:22.245Z,15.45
2022-12-20T01:51:55.394Z,13.98
2022-12-20T01:54:31.982Z,15.15
2022-12-20T01:57:12.747Z,14.68
2022-12-20T01:59:44.596Z,14.68
2022-12-20T02:02:13.995Z,14.93
2022-12-20T02:04:42.121Z,15.40
2022-12-20T02:07:24.443Z,15.60
2022-12-20T02:09:53.611Z,15.70
2022-12-20T02:12:25.539Z,14.38
2022-12-20T02:15:11.079Z,15.07
2022-12-20T02:18:11.301Z,15.32
2022-12-20T02:21:31.340Z,14.35
2022-12-20T02:24:26.965Z,14.50
2022-12-20T02:27:17.845Z,13.82
2022-12-20T02:30:12.106Z,13.07
2022-12-20T02:33:05.215Z,13.18
2022-12-20T02:35:36.084Z,13.85
2022-12-20T02:38:27.972Z,14.25
2022-12-20T02:41:07.130Z,13.87
2022-12-20T02:43:56.571Z,13.15
2022-12-20T02:46:26.490Z,13.63
2022-12-20T02:49:00.414Z,12.98
2022-12-20T02:51:30.607Z,13.70
2022-12-20T02:54:00.069Z,13.75
2022-12-20T02:56:31.293Z,14.70
2022-12-20T02:59:23.341Z,13.95
2022-12-20T03:01:56.325Z,13.90
2022-12-20T03:04:32.277Z,13.05
2022-12-20T03:07:04.002Z,13.18
2022-12-20T03:12:01.719Z,12.18
2022-12-20T03:14:31.490Z,12.30
2022-12-20T03:17:02.350Z,12.50
2022-12-20T03:19:30.310Z,12.15
2022-12-20T03:21:59.313Z,13.35
2022-12-20T03:24:27.258Z,12.07
2022-12-20T03:26:55.679Z,12.90
2022-12-20T03:29:25.458Z,12.77
2022-12-20T03:31:54.160Z,13.02
2022-12-20T03:34:21.890Z,12.27
2022-12-20T03:36:50.124Z,13.23
2022-12-20T03:39:17.931Z,12.93
2022-12-20T03:41:46.199Z,12.32
2022-12-20T03:44:18.542Z,12.15
2022-12-20T03:46:46.508Z,13.00
2022-12-20T03:49:14.523Z,12.23
2022-12-20T03:51:47.511Z,12.43
2022-12-20T03:54:15.365Z,12.45
2022-12-20T03:57:07.590Z,12.85
2022-12-20T03:59:35.776Z,12.52
2022-12-20T04:02:05.848Z,13.07
2022-12-20T04:04:34.913Z,13.10
2022-12-20T04:07:02.721Z,12.98
2022-12-20T04:09:31.013Z,13.15
2022-12-20T04:12:06.101Z,13.93
2022-12-20T04:14:37.321Z,13.00
2022-12-20T04:17:05.965Z,13.50
2022-12-20T04:19:34.693Z,13.70
2022-12-20T04:22:06.133Z,14.02
2022-12-20T04:24:54.475Z,14.38
2022-12-20T04:27:28.085Z,14.35
2022-12-20T04:29:57.719Z,14.77
2022-12-20T04:32:25.495Z,14.48
2022-12-20T04:34:53.432Z,13.88
2022-12-20T04:37:21.542Z,14.48
2022-12-20T04:39:55.337Z,15.35
2022-12-20T04:43:01.190Z,14.90
2022-12-20T04:45:29.066Z,14.52
2022-12-20T04:47:57.211Z,14.50
2022-12-20T04:50:33.919Z,15.23
2022-12-20T04:53:20.482Z,17.85
2022-12-20T04:55:50.208Z,15.95
2022-12-20T04:58:18.447Z,15.80
2022-12-20T05:00:46.874Z,14.80
2022-12-20T05:03:27.759Z,15.18
2022-12-20T05:05:56.603Z,14.60
2022-12-20T05:08:25.093Z,15.02
2022-12-20T05:10:54.078Z,14.82
2022-12-20T05:13:22.881Z,14.10
2022-12-20T05:15:56.029Z,14.50
2022-12-20T05:18:27.687Z,16.27
2022-12-20T05:21:27.933Z,19.50
2022-12-20T05:24:14.775Z,20.88
2022-12-20T05:27:00.978Z,24.15
2022-12-20T05:29:28.905Z,22.85
2022-12-20T05:31:56.813Z,20.13
2022-12-20T05:34:24.881Z,17.15
2022-12-20T05:36:54.873Z,16.73
2022-12-20T05:39:25.105Z,15.43
2022-12-20T05:41:55.928Z,15.23
2022-12-20T05:44:26.217Z,15.77
2022-12-20T05:46:57.304Z,15.52
2022-12-20T05:49:29.693Z,15.73
2022-12-20T05:52:01.782Z,15.53
2022-12-20T05:54:30.097Z,15.40
2022-12-20T05:57:06.121Z,14.93
2022-12-20T05:59:38.113Z,14.07
2022-12-20T06:02:10.637Z,14.60
2022-12-20T06:04:38.769Z,14.70
2022-12-20T06:07:14.393Z,14.75
2022-12-20T06:09:43.964Z,14.82
2022-12-20T06:12:15.164Z,14.48
2022-12-20T06:14:43.610Z,14.95
2022-12-20T06:17:13.814Z,14.25
2022-12-20T06:19:41.689Z,14.48
2022-12-20T06:22:11.617Z,14.02
2022-12-20T06:24:56.358Z,14.13
2022-12-20T06:27:28.133Z,13.90
2022-12-20T06:30:09.893Z,14.82
2022-12-20T06:32:56.451Z,14.02
2022-12-20T06:35:24.437Z,15.27
2022-12-20T06:37:55.609Z,13.85
2022-12-20T06:40:23.896Z,13.88
2022-12-20T06:42:51.783Z,14.32
2022-12-20T06:45:22.869Z,13.55
2022-12-20T06:47:50.881Z,12.57
2022-12-20T06:50:18.624Z,13.70
2022-12-20T06:52:46.322Z,13.18
2022-12-20T06:55:14.244Z,13.18
2022-12-20T06:57:43.042Z,13.18
2022-12-20T07:00:12.810Z,13.85
2022-12-20T07:02:40.590Z,12.63
2022-12-20T07:05:09.003Z,12.57
2022-12-20T07:07:44.384Z,12.32
2022-12-20T07:10:12.889Z,12.48
2022-12-20T07:12:47.198Z,12.18
2022-12-20T07:15:16.882Z,12.38
2022-12-20T07:17:45.216Z,13.32
2022-12-20T07:20:14.330Z,13.10
2022-12-20T07:22:42.451Z,15.48
2022-12-20T07:25:11.628Z,15.60
2022-12-20T07:27:39.641Z,16.30
2022-12-20T07:30:08.266Z,16.08
2022-12-20T07:32:36.057Z,18.42
2022-12-20T07:35:03.821Z,19.08
2022-12-20T07:37:31.584Z,19.38
2022-12-20T07:39:59.403Z,20.10
2022-12-20T07:42:29.055Z,18.52
2022-12-20T07:45:03.727Z,20.10
2022-12-20T07:47:31.461Z,19.85
2022-12-20T07:49:59.099Z,20.00
2022-12-20T07:52:29.890Z,18.92
2022-12-20T07:55:01.604Z,18.88
2022-12-20T07:57:44.965Z,21.00
2022-12-20T08:00:13.921Z,18.40
2022-12-20T08:03:16.386Z,18.95
2022-12-20T08:05:48.891Z,16.20
2022-12-20T08:08:17.552Z,16.38
2022-12-20T08:10:46.698Z,15.63
2022-12-20T08:13:15.260Z,15.15
2022-12-20T08:15:43.046Z,14.70
2022-12-20T08:18:10.772Z,15.57
2022-12-20T08:20:38.698Z,16.77
2022-12-20T08:23:06.371Z,17.30
2022-12-20T08:25:41.204Z,18.92
2022-12-20T08:28:09.932Z,17.63
2022-12-20T08:30:38.000Z,17.95
2022-12-20T08:33:06.057Z,17.38
2022-12-20T08:35:34.106Z,18.75
2022-12-20T08:38:01.811Z,17.20
2022-12-20T08:40:29.576Z,16.02
2022-12-20T08:42:58.602Z,17.05
2022-12-20T08:45:26.655Z,16.02
2022-12-20T08:47:55.068Z,17.05
2022-12-20T08:50:22.807Z,17.70
2022-12-20T08:52:50.613Z,17.05
2022-12-20T08:55:22.031Z,16.00
2022-12-20T08:57:52.612Z,16.55
2022-12-20T09:00:21.138Z,16.13
2022-12-20T09:02:50.909Z,15.95
2022-12-20T09:05:18.745Z,15.35
2022-12-20T09:07:47.632Z,16.38
2022-12-20T09:10:15.487Z,17.40
2022-12-20T09:12:43.344Z,18.63
2022-12-20T09:15:11.815Z,18.23
2022-12-20T09:17:39.475Z,18.05
2022-12-20T09:20:08.119Z,18.45
2022-12-20T09:22:35.790Z,18.60
2022-12-20T09:25:03.561Z,17.27
2022-12-20T09:27:31.301Z,16.30
2022-12-20T09:29:59.199Z,17.10
2022-12-20T09:32:26.851Z,15.75
2022-12-20T09:34:54.506Z,14.30
2022-12-20T09:37:22.314Z,15.00
2022-12-20T09:39:51.406Z,15.48
2022-12-20T09:42:25.694Z,15.38
2022-12-20T09:45:03.427Z,15.52
2022-12-20T09:47:34.689Z,15.98
2022-12-20T09:50:05.019Z,15.55
2022-12-20T09:52:51.875Z,14.63
2022-12-20T09:55:43.456Z,15.15
2022-12-20T09:58:41.737Z,14.50
2022-12-20T10:01:25.585Z,15.00
2022-12-20T10:03:56.063Z,14.70
2022-12-20T10:07:14.635Z,12.98
2022-12-20T10:09:58.197Z,14.48
2022-12-20T10:12:46.328Z,15.82
2022-12-20T10:15:26.644Z,15.13
2022-12-20T10:18:06.742Z,12.77
2022-12-20T10:21:08.786Z,11.75
2022-12-20T10:26:26.041Z,11.05
2022-12-20T10:28:54.726Z,11.90
2022-12-20T10:31:23.242Z,12.35
2022-12-20T10:33:51.035Z,12.57
2022-12-20T10:36:28.813Z,13.23
2022-12-20T10:39:09.262Z,14.25
2022-12-20T10:41:57.112Z,14.85
2022-12-20T10:44:44.865Z,13.70
2022-12-20T10:47:35.879Z,13.27
2022-12-20T10:50:21.536Z,12.83
2022-12-20T10:53:11.295Z,13.45
2022-12-20T10:55:42.473Z,12.07
2022-12-20T10:58:35.405Z,12.15
2022-12-20T11:01:20.062Z,12.65
2022-12-20T11:04:05.009Z,11.85
2022-12-20T11:06:38.891Z,13.30
2022-12-20T11:09:52.153Z,12.32
2022-12-20T11:12:20.221Z,11.85
2022-12-20T11:14:49.380Z,12.00
2022-12-20T11:17:48.819Z,12.85
2022-12-20T11:20:26.508Z,12.40
2022-12-20T11:23:16.059Z,13.60
2022-12-20T11:26:18.563Z,13.73
2022-12-20T11:29:03.926Z,12.68
2022-12-20T11:32:08.273Z,13.02
2022-12-20T11:35:07.871Z,11.98
2022-12-20T11:38:05.557Z,12.40
2022-12-20T11:41:14.278Z,12.93
2022-12-20T11:44:25.129Z,13.13
2022-12-20T11:47:39.801Z,12.90
2022-12-20T11:50:51.327Z,12.93
2022-12-20T11:53:26.785Z,13.00
2022-12-20T11:56:02.103Z,20.38
2022-12-20T11:58:42.386Z,14.15
2022-12-20T12:01:16.524Z,16.25
2022-12-20T12:03:57.994Z,15.40
2022-12-20T12:06:42.695Z,14.02
2022-12-20T12:09:23.473Z,13.57
2022-12-20T12:12:24.239Z,15.52
2022-12-20T12:15:17.430Z,29.38
2022-12-20T12:18:05.830Z,21.02
2022-12-20T12:21:08.519Z,14.32
2022-12-20T12:24:18.306Z,14.05
2022-12-20T12:26:46.359Z,12.98
2022-12-20T12:29:20.887Z,11.93
2022-12-20T12:32:34.930Z,12.20
2022-12-20T12:35:41.066Z,12.45
2022-12-20T12:38:33.833Z,12.55
2022-12-20T12:41:27.574Z,14.02
2022-12-20T12:44:05.440Z,14.23
2022-12-20T12:46:37.516Z,12.73
2022-12-20T12:49:17.609Z,13.13
2022-12-20T12:51:57.303Z,10.27
2022-12-20T12:54:31.199Z,10.05
2022-12-20T12:57:16.389Z,9.93
2022-12-20T12:59:50.549Z,9.82
2022-12-20T13:02:20.654Z,10.25
2022-12-20T13:05:09.006Z,11.23
2022-12-20T13:07:37.035Z,10.98
2022-12-20T13:10:20.195Z,9.98
2022-12-20T13:13:01.402Z,13.35
2022-12-20T13:15:30.338Z,16.80
2022-12-20T13:18:21.770Z,15.30
2022-12-20T13:21:31.157Z,14.20
2022-12-20T13:24:36.117Z,13.57
2022-12-20T13:27:35.630Z,11.55
2022-12-20T13:30:12.004Z,11.77
2022-12-20T13:32:49.069Z,11.15
2022-12-20T13:35:26.834Z,11.60
2022-12-20T13:38:24.886Z,11.13
2022-12-20T13:41:00.252Z,11.38
2022-12-20T13:43:44.739Z,11.52
2022-12-20T13:46:32.803Z,11.45
2022-12-20T13:49:04.347Z,10.65
2022-12-20T13:51:32.305Z,10.00
2022-12-20T13:54:07.874Z,10.57
2022-12-20T13:56:41.738Z,12.50
2022-12-20T13:59:31.704Z,14.88
2022-12-20T14:02:11.073Z,15.50
2022-12-20T14:04:46.529Z,17.08
2022-12-20T14:07:18.158Z,17.90
2022-12-20T14:12:28.614Z,16.50
2022-12-20T14:14:59.809Z,16.95
2022-12-20T14:17:33.258Z,18.10
2022-12-20T14:20:15.996Z,17.23
2022-12-20T14:23:04.121Z,17.23
2022-12-20T14:25:44.650Z,17.33
2022-12-20T14:28:58.239Z,17.25
2022-12-20T14:31:41.060Z,16.80
2022-12-20T14:34:12.024Z,17.35
2022-12-20T14:36:50.669Z,17.83
2022-12-20T14:39:21.393Z,19.48
2022-12-20T14:42:00.193Z,18.40
2022-12-20T14:44:31.820Z,17.20
2022-12-20T14:47:34.135Z,17.08
2022-12-20T14:50:34.132Z,15.80
2022-12-20T14:53:03.025Z,16.92
2022-12-20T14:55:39.446Z,19.00
2022-12-20T14:58:23.923Z,16.60
2022-12-20T15:01:02.345Z,18.73
2022-12-20T15:03:30.598Z,17.98
2022-12-20T15:06:00.562Z,14.50
2022-12-20T15:08:33.124Z,18.02
2022-12-20T15:11:10.376Z,17.80
2022-12-20T15:13:46.744Z,15.85
2022-12-20T15:16:18.643Z,14.15
2022-12-20T15:21:37.415Z,11.27
2022-12-20T15:24:11.750Z,10.57
2022-12-20T15:26:39.752Z,10.73
2022-12-20T15:29:15.118Z,10.80
2022-12-20T15:31:44.300Z,10.85
2022-12-20T15:34:38.466Z,11.57
2022-12-20T15:37:06.823Z,11.18
2022-12-20T15:39:34.748Z,15.85
2022-12-20T15:42:04.973Z,16.17
2022-12-20T15:44:35.981Z,15.57
2022-12-20T15:47:03.870Z,19.10
2022-12-20T15:49:34.444Z,20.30
2022-12-20T15:52:02.353Z,22.13
2022-12-20T15:54:32.786Z,21.13
2022-12-20T15:57:04.560Z,22.65
2022-12-20T16:02:26.924Z,18.70
2022-12-20T16:04:55.637Z,16.95
2022-12-20T16:07:24.360Z,16.92
2022-12-20T16:09:52.645Z,16.25
2022-12-20T16:12:29.486Z,21.50
2022-12-20T16:14:57.665Z,20.90
2022-12-20T16:17:25.630Z,21.75
2022-12-20T16:19:53.585Z,19.13
2022-12-20T16:22:23.491Z,18.60
2022-12-20T16:24:52.063Z,19.85
2022-12-20T16:27:20.489Z,18.30
2022-12-20T16:29:48.576Z,17.48
2022-12-20T16:32:21.754Z,18.00
2022-12-20T16:34:50.083Z,18.67
2022-12-20T16:37:18.088Z,18.65
2022-12-20T16:39:45.803Z,18.92
2022-12-20T16:42:33.473Z,18.65
2022-12-20T16:45:01.504Z,18.42
2022-12-20T16:47:29.455Z,18.30
2022-12-20T16:49:57.153Z,19.10
2022-12-20T16:52:25.099Z,19.23
2022-12-20T16:54:53.901Z,19.27
2022-12-20T16:57:22.032Z,18.45
2022-12-20T16:59:49.870Z,19.50
2022-12-20T17:02:29.193Z,29.33
2022-12-20T17:04:57.568Z,23.40
2022-12-20T17:07:27.522Z,24.17
2022-12-20T17:09:55.216Z,20.05
2022-12-20T17:12:23.522Z,22.05
2022-12-20T17:14:51.340Z,22.45
2022-12-20T17:17:19.204Z,19.00
2022-12-20T17:19:46.969Z,19.17
2022-12-20T17:25:02.591Z,18.63
2022-12-20T17:27:30.503Z,17.67
2022-12-20T17:29:58.359Z,19.70
2022-12-20T17:32:26.406Z,19.38
2022-12-20T17:34:54.540Z,19.30
2022-12-20T17:37:22.697Z,19.25
2022-12-20T17:39:50.438Z,18.67
2022-12-20T17:42:18.236Z,19.83
2022-12-20T17:44:49.186Z,21.05
2022-12-20T17:47:17.371Z,21.48
2022-12-20T17:49:45.254Z,21.73
2022-12-20T17:52:16.306Z,24.92
2022-12-20T17:54:44.075Z,27.08
2022-12-20T17:57:16.457Z,22.00
2022-12-20T17:59:44.986Z,20.17
2022-12-20T18:02:22.568Z,19.15
2022-12-20T18:04:51.598Z,18.42
2022-12-20T18:07:19.690Z,17.50
2022-12-20T18:09:49.117Z,17.60
2022-12-20T18:12:17.855Z,17.80
2022-12-20T18:14:47.666Z,17.65
2022-12-20T18:17:15.662Z,16.63
2022-12-20T18:19:43.926Z,18.20
2022-12-20T18:22:12.214Z,17.20
2022-12-20T18:24:40.598Z,17.58
2022-12-20T18:27:08.382Z,17.83
2022-12-20T18:29:36.368Z,18.63
2022-12-20T18:32:04.904Z,18.10
2022-12-20T18:34:33.011Z,19.77
2022-12-20T18:37:01.953Z,22.58
2022-12-20T18:39:29.909Z,26.88
2022-12-20T18:41:57.878Z,31.33
2022-12-20T18:44:25.689Z,31.50
2022-12-20T18:46:54.690Z,32.10
2022-12-20T18:49:23.690Z,30.63
2022-12-20T18:51:51.506Z,31.10
2022-12-20T18:54:19.297Z,28.50
2022-12-20T18:56:49.015Z,31.25
2022-12-20T18:59:16.988Z,30.10
2022-12-20T19:01:44.829Z,31.65
2022-12-20T19:04:14.288Z,32.53
2022-12-20T19:06:43.799Z,29.00
2022-12-20T19:09:13.881Z,28.65
2022-12-20T19:11:43.135Z,26.77
2022-12-20T19:14:12.834Z,26.80
2022-12-20T19:16:41.069Z,26.02
2022-12-20T19:19:10.002Z,25.50
2022-12-20T19:21:42.877Z,24.75
2022-12-20T19:24:11.709Z,23.40
2022-12-20T19:26:40.465Z,22.88
2022-12-20T19:29:09.367Z,21.35
2022-12-20T19:31:38.277Z,21.58
2022-12-20T19:34:10.669Z,21.17
2022-12-20T19:36:45.091Z,21.98
2022-12-20T19:39:23.050Z,23.10
2022-12-20T19:42:22.212Z,23.63
2022-12-20T19:44:40.691Z,23.73
2022-12-20T19:47:09.132Z,23.05
2022-12-20T19:49:40.044Z,24.10
2022-12-20T19:52:08.086Z,18.00
2022-12-20T19:54:36.151Z,23.17
2022-12-20T19:57:04.269Z,22.35
2022-12-20T19:59:32.411Z,21.30
2022-12-20T20:02:00.659Z,22.20
2022-12-20T20:04:29.427Z,21.80
2022-12-20T20:06:57.991Z,20.67
2022-12-20T20:09:25.896Z,20.33
2022-12-20T20:11:54.302Z,21.20
2022-12-20T20:14:22.535Z,20.73
2022-12-20T20:16:50.983Z,20.58
2022-12-20T20:19:20.522Z,21.25
2022-12-20T20:21:49.664Z,22.10
2022-12-20T20:24:18.058Z,26.50
2022-12-20T20:26:46.214Z,28.65
2022-12-20T20:29:14.393Z,29.23
2022-12-20T20:31:42.637Z,30.60
2022-12-20T20:34:10.952Z,31.92
2022-12-20T20:36:39.607Z,31.20
2022-12-20T20:39:08.111Z,34.60
2022-12-20T20:41:36.229Z,38.08
2022-12-20T20:44:04.539Z,39.42
2022-12-20T20:46:33.063Z,39.08
2022-12-20T20:49:01.407Z,31.58
2022-12-20T20:51:29.639Z,27.45
2022-12-20T20:53:58.462Z,25.52
2022-12-20T20:56:26.590Z,20.60
2022-12-20T20:59:02.891Z,19.67
2022-12-20T21:01:34.392Z,19.42
2022-12-20T21:04:02.960Z,20.50
2022-12-20T21:06:39.955Z,20.83
2022-12-20T21:09:09.563Z,20.33
2022-12-20T21:11:38.000Z,19.75
2022-12-20T21:14:06.471Z,20.30
2022-12-20T21:16:34.682Z,20.88
2022-12-20T21:19:03.160Z,19.77
2022-12-20T21:21:31.129Z,21.27
2022-12-20T21:23:59.209Z,19.13
2022-12-20T21:26:27.453Z,19.13
2022-12-20T21:29:01.448Z,18.05
2022-12-20T21:31:30.872Z,16.52
2022-12-20T21:33:59.423Z,15.70
2022-12-20T21:36:27.542Z,15.20
2022-12-20T21:38:57.824Z,14.85
2022-12-20T21:41:28.662Z,13.80
2022-12-20T21:43:59.064Z,12.30
2022-12-20T21:46:29.575Z,13.00
2022-12-20T21:48:58.779Z,12.13
2022-12-20T21:51:29.002Z,11.68
2022-12-20T21:54:02.424Z,11.82
2022-12-20T21:56:33.099Z,11.65
2022-12-20T21:59:02.486Z,12.57
2022-12-20T22:01:31.747Z,16.77
2022-12-20T22:04:05.700Z,20.52
2022-12-20T22:06:36.782Z,17.55
2022-12-20T22:09:09.243Z,16.40
2022-12-20T22:11:38.107Z,16.23
2022-12-20T22:14:06.849Z,15.07
2022-12-20T22:16:35.382Z,13.48
2022-12-20T22:19:04.289Z,13.68
2022-12-20T22:21:34.312Z,13.05
2022-12-20T22:24:03.054Z,13.65
2022-12-20T22:26:33.601Z,12.63
2022-12-20T22:29:07.039Z,14.15
2022-12-20T22:31:36.653Z,14.15
2022-12-20T22:34:05.058Z,13.75
2022-12-20T22:36:33.159Z,14.25
2022-12-20T22:39:01.254Z,13.15
2022-12-20T22:41:34.492Z,13.30
2022-12-20T22:44:02.981Z,13.32
2022-12-20T22:46:31.909Z,13.30
2022-12-20T22:48:59.878Z,13.32
2022-12-20T22:51:30.931Z,13.82
2022-12-20T22:54:00.078Z,12.98
2022-12-20T22:56:28.508Z,14.05
2022-12-20T22:58:57.490Z,13.82
2022-12-20T23:01:26.253Z,14.70
2022-12-20T23:03:54.426Z,15.82
2022-12-20T23:06:23.383Z,14.15
2022-12-20T23:08:51.474Z,15.80
2022-12-20T23:11:45.171Z,14.88
2022-12-20T23:14:40.600Z,12.90
2022-12-20T23:17:10.998Z,13.18
2022-12-20T23:19:58.190Z,13.30
2022-12-20T23:22:39.062Z,12.95
2022-12-20T23:25:15.597Z,13.20
2022-12-20T23:27:46.486Z,13.15
2022-12-20T23:30:20.392Z,9.50
2022-12-20T23:32:49.495Z,12.90
2022-12-20T23:35:26.118Z,12.93
2022-12-20T23:37:58.950Z,12.25
2022-12-20T23:40:26.804Z,11.68
2022-12-20T23:42:55.437Z,11.48
2022-12-20T23:45:23.202Z,11.52
2022-12-20T23:47:51.945Z,11.45
2022-12-20T23:50:20.350Z,10.73
2022-12-20T23:52:50.320Z,11.35
2022-12-20T23:55:18.568Z,11.52
2022-12-20T23:57:46.562Z,10.65
